Time;durP1;ratioP1;P1;durP2;ratioP2;P2;SDS_P1;SDS_P2;PMS_P1;PMS_P2;Temp;Humidity;BMP_temperature;BMP_pressure;BME280_temperature;BME280_humidity;BME280_pressure;Samples;Min_cycle;Max_cycle;Signal;HPM_P1;HPM_P2
2021/04/10 00:00:51;;;;;;;6.53;4.50;;;7.00;63.30;;;;;;5056653;28;20568;-54
2021/04/10 00:03:16;;;;;;;12.57;5.33;;;6.90;64.10;;;;;;5061011;28;20456;-58
2021/04/10 00:05:42;;;;;;;11.83;5.40;;;6.90;64.60;;;;;;5059499;28;20542;-57
2021/04/10 00:08:08;;;;;;;11.67;4.93;;;6.80;65.60;;;;;;5064498;28;20420;-56
2021/04/10 00:10:34;;;;;;;18.70;4.53;;;6.80;65.80;;;;;;5064987;28;20445;-55
2021/04/10 00:13:00;;;;;;;9.23;4.60;;;6.70;66.70;;;;;;5061220;28;20194;-56
2021/04/10 00:15:28;;;;;;;12.03;4.07;;;6.70;67.50;;;;;;5063847;28;20533;-56
2021/04/10 00:17:55;;;;;;;7.13;4.00;;;6.70;67.90;;;;;;5079002;28;20316;-55
2021/04/10 00:20:21;;;;;;;7.23;3.80;;;6.60;68.60;;;;;;5065160;28;20536;-55
2021/04/10 00:22:48;;;;;;;6.33;3.80;;;6.60;69.60;;;;;;5063960;28;20467;-55
2021/04/10 00:25:15;;;;;;;9.80;4.60;;;6.60;70.60;;;;;;5064909;28;20446;-56
2021/04/10 00:27:41;;;;;;;12.57;5.70;;;6.60;71.00;;;;;;5061518;28;20467;-56
2021/04/10 00:30:09;;;;;;;10.40;4.37;;;6.60;71.20;;;;;;5065926;28;20429;-56
2021/04/10 00:32:35;;;;;;;7.77;5.27;;;6.60;70.60;;;;;;5061735;28;20952;-56
2021/04/10 00:35:01;;;;;;;7.70;5.40;;;6.60;70.20;;;;;;5062531;28;20433;-54
2021/04/10 00:37:27;;;;;;;11.60;5.23;;;6.60;70.80;;;;;;5061149;28;20756;-57
2021/04/10 00:39:52;;;;;;;11.80;5.60;;;6.60;70.40;;;;;;5062723;28;20261;-56
2021/04/10 00:42:18;;;;;;;9.40;5.20;;;6.60;69.50;;;;;;5063987;28;20174;-56
2021/04/10 00:44:44;;;;;;;10.50;5.63;;;6.60;69.30;;;;;;5059793;28;20252;-56
2021/04/10 00:47:09;;;;;;;10.07;5.40;;;6.60;69.50;;;;;;5061690;28;20630;-56
2021/04/10 00:49:35;;;;;;;13.80;6.40;;;6.60;69.60;;;;;;5064600;28;20722;-55
2021/04/10 00:52:02;;;;;;;20.07;7.03;;;6.60;70.00;;;;;;5058629;28;20183;-56
2021/04/10 00:54:28;;;;;;;13.33;7.40;;;6.60;70.50;;;;;;5061629;28;20198;-55
2021/04/10 00:56:54;;;;;;;12.73;6.40;;;6.60;69.70;;;;;;5061624;28;21097;-55
2021/04/10 00:59:20;;;;;;;20.30;7.43;;;6.60;69.70;;;;;;5060023;28;20433;-56
2021/04/10 01:01:46;;;;;;;10.90;6.50;;;6.60;69.70;;;;;;5061543;28;20768;-56
2021/04/10 01:04:13;;;;;;;11.10;6.67;;;6.60;70.80;;;;;;5061296;28;20503;-57
2021/04/10 01:06:38;;;;;;;12.80;6.30;;;6.50;71.10;;;;;;5064233;28;20433;-55
2021/04/10 01:09:04;;;;;;;13.63;7.20;;;6.50;72.10;;;;;;5065248;28;20558;-57
2021/04/10 01:11:51;;;;;;;16.30;6.20;;;6.50;72.00;;;;;;5062300;28;20616;-55
2021/04/10 01:14:29;;;;;;;9.87;5.20;;;6.50;72.70;;;;;;5058470;28;20869;-57
2021/04/10 01:16:59;;;;;;;8.90;5.07;;;6.40;73.10;;;;;;5066054;28;20434;-57
2021/04/10 01:19:44;;;;;;;12.43;5.53;;;6.40;73.50;;;;;;5064860;28;20908;-56
2021/04/10 01:22:37;;;;;;;9.33;5.73;;;6.40;74.40;;;;;;5057471;28;20436;-55
2021/04/10 01:25:09;;;;;;;10.03;4.43;;;6.30;74.90;;;;;;5062542;28;20424;-56
2021/04/10 01:27:45;;;;;;;10.33;4.90;;;6.30;75.40;;;;;;5062074;28;20439;-57
2021/04/10 01:30:10;;;;;;;9.00;5.10;;;6.30;76.10;;;;;;5064022;28;20423;-57
2021/04/10 01:33:06;;;;;;;13.10;5.63;;;6.20;75.70;;;;;;5055919;28;20441;-57
2021/04/10 01:35:47;;;;;;;16.47;5.83;;;6.20;75.90;;;;;;5063396;28;20170;-56
2021/04/10 01:38:19;;;;;;;17.23;5.73;;;6.20;76.00;;;;;;5064506;28;20812;-54
2021/04/10 01:40:50;;;;;;;15.03;5.67;;;6.20;76.20;;;;;;5061491;28;20452;-56
2021/04/10 01:43:16;;;;;;;11.90;6.20;;;6.10;75.70;;;;;;5067052;28;20529;-56
2021/04/10 01:45:43;;;;;;;13.90;6.17;;;6.10;75.90;;;;;;5063816;28;20940;-56
2021/04/10 01:48:11;;;;;;;11.80;6.47;;;6.10;76.10;;;;;;5064544;28;20960;-56
2021/04/10 01:50:39;;;;;;;12.47;6.30;;;6.10;76.30;;;;;;5061895;28;20429;-56
2021/04/10 01:53:06;;;;;;;9.20;4.97;;;6.10;75.80;;;;;;5062075;28;20460;-56
2021/04/10 01:55:32;;;;;;;7.67;5.40;;;6.10;75.20;;;;;;5066186;28;20448;-55
2021/04/10 01:57:59;;;;;;;12.60;5.40;;;6.00;74.80;;;;;;5066373;28;20440;-56
2021/04/10 02:00:27;;;;;;;6.57;4.53;;;6.10;75.10;;;;;;5056443;28;20432;-57
2021/04/10 02:02:54;;;;;;;8.97;5.03;;;6.00;75.00;;;;;;5064113;28;20539;-56
2021/04/10 02:05:21;;;;;;;5.70;4.10;;;6.10;75.50;;;;;;5058119;28;20702;-56
2021/04/10 02:07:48;;;;;;;6.83;4.20;;;6.10;75.70;;;;;;5064143;28;20940;-55
2021/04/10 02:10:23;;;;;;;8.43;4.83;;;6.00;76.20;;;;;;5061694;28;20451;-55
2021/04/10 02:12:51;;;;;;;7.63;4.60;;;6.00;76.90;;;;;;5062522;28;20463;-54
2021/04/10 02:15:19;;;;;;;7.30;4.93;;;6.00;77.20;;;;;;5057010;28;20432;-54
2021/04/10 02:17:45;;;;;;;9.70;5.43;;;6.00;77.60;;;;;;5061651;28;20486;-55
2021/04/10 02:20:12;;;;;;;8.97;4.80;;;5.90;78.80;;;;;;5063225;28;20518;-55
2021/04/10 02:22:43;;;;;;;8.70;5.43;;;5.90;79.70;;;;;;5060903;28;20606;-54
2021/04/10 02:25:10;;;;;;;9.83;5.40;;;5.80;79.60;;;;;;5062281;28;20957;-56
2021/04/10 02:27:37;;;;;;;9.40;5.53;;;5.80;79.80;;;;;;5058437;28;21007;-56
2021/04/10 02:30:05;;;;;;;10.53;6.03;;;5.70;80.70;;;;;;5063814;28;20940;-56
2021/04/10 02:33:02;;;;;;;8.47;5.73;;;5.70;81.40;;;;;;5058895;28;20425;-55
2021/04/10 02:35:31;;;;;;;10.53;5.90;;;5.60;81.50;;;;;;5063463;28;20457;-56
2021/04/10 02:37:58;;;;;;;10.93;5.20;;;5.60;81.80;;;;;;5067947;28;20416;-56
2021/04/10 02:40:28;;;;;;;10.63;5.70;;;5.60;82.00;;;;;;5064613;28;20785;-56
2021/04/10 02:42:54;;;;;;;8.50;5.23;;;5.60;82.50;;;;;;5066119;28;20468;-57
2021/04/10 02:45:26;;;;;;;9.90;4.17;;;5.60;83.00;;;;;;5067076;28;20408;-55
2021/04/10 02:47:57;;;;;;;10.27;4.47;;;5.50;83.30;;;;;;5068514;28;20463;-54
2021/04/10 02:50:24;;;;;;;7.47;4.20;;;5.50;83.60;;;;;;5062862;28;20940;-55
2021/04/10 02:52:53;;;;;;;6.47;4.40;;;5.50;83.80;;;;;;5063603;28;20456;-55
2021/04/10 02:55:25;;;;;;;9.83;5.27;;;5.50;84.50;;;;;;5068259;28;20499;-56
2021/04/10 02:57:52;;;;;;;15.73;4.70;;;5.50;85.20;;;;;;5067663;28;20420;-56
2021/04/10 03:00:19;;;;;;;7.77;4.50;;;5.40;84.70;;;;;;5065927;28;20976;-55
2021/04/10 03:02:46;;;;;;;8.90;4.70;;;5.40;85.00;;;;;;5061910;28;20464;-56
2021/04/10 03:05:15;;;;;;;9.80;4.77;;;5.40;84.90;;;;;;5063805;28;20420;-54
2021/04/10 03:07:46;;;;;;;8.20;4.30;;;5.40;85.00;;;;;;5063812;28;20428;-55
2021/04/10 03:10:14;;;;;;;7.37;4.30;;;5.40;85.50;;;;;;5069257;28;20452;-55
2021/04/10 03:12:40;;;;;;;8.37;4.60;;;5.30;85.60;;;;;;5067064;28;20459;-56
2021/04/10 03:15:07;;;;;;;5.40;3.90;;;5.30;85.40;;;;;;5064462;28;20421;-55
2021/04/10 03:17:37;;;;;;;7.87;4.70;;;5.30;85.30;;;;;;5069619;28;20171;-56
2021/04/10 03:20:04;;;;;;;7.03;4.00;;;5.30;85.70;;;;;;5065019;28;20433;-55
2021/04/10 03:22:30;;;;;;;5.07;4.10;;;5.30;86.50;;;;;;5062556;28;20432;-54
2021/04/10 03:24:56;;;;;;;16.13;5.00;;;5.30;86.30;;;;;;5064036;28;20429;-55
2021/04/10 03:27:22;;;;;;;8.07;4.27;;;5.30;86.50;;;;;;5066942;28;20179;-54
2021/04/10 03:29:49;;;;;;;6.87;4.20;;;5.30;87.40;;;;;;5066913;28;20421;-55
2021/04/10 03:32:15;;;;;;;5.43;3.90;;;5.30;86.60;;;;;;5063006;28;20493;-55
2021/04/10 03:34:41;;;;;;;13.63;3.97;;;5.30;86.90;;;;;;5059863;28;20463;-55
2021/04/10 03:37:07;;;;;;;6.00;4.30;;;5.40;86.50;;;;;;5066279;28;21291;-55
2021/04/10 03:39:33;;;;;;;7.47;4.17;;;5.30;86.70;;;;;;5067578;28;20431;-55
2021/04/10 03:42:01;;;;;;;6.70;4.10;;;5.30;86.50;;;;;;5064125;28;20279;-56
2021/04/10 03:44:27;;;;;;;7.47;4.20;;;5.30;86.40;;;;;;5081414;22;20226;-58
2021/04/10 03:46:52;;;;;;;8.93;4.57;;;5.40;85.90;;;;;;5068318;28;20440;-58
2021/04/10 03:49:18;;;;;;;8.93;5.53;;;5.40;85.30;;;;;;5067532;28;20175;-58
2021/04/10 03:51:44;;;;;;;8.53;5.10;;;5.40;85.90;;;;;;5070049;28;20624;-58
2021/04/10 03:54:10;;;;;;;8.30;5.70;;;5.50;85.70;;;;;;5075407;28;20270;-59
2021/04/10 03:56:36;;;;;;;8.50;4.40;;;5.40;85.70;;;;;;5076718;28;20631;-57
2021/04/10 03:59:02;;;;;;;9.13;5.50;;;5.40;85.50;;;;;;5075937;28;20213;-58
2021/04/10 04:01:28;;;;;;;10.60;5.70;;;5.40;85.50;;;;;;5062616;28;20445;-58
2021/04/10 04:03:54;;;;;;;8.33;5.00;;;5.50;85.00;;;;;;5065797;28;20479;-59
2021/04/10 04:06:19;;;;;;;11.27;5.10;;;5.50;84.60;;;;;;5067634;28;20205;-58
2021/04/10 04:08:45;;;;;;;6.37;4.00;;;5.50;83.60;;;;;;5065140;28;20209;-59
2021/04/10 04:11:11;;;;;;;5.63;4.40;;;5.60;82.90;;;;;;5066451;28;20531;-58
2021/04/10 04:13:36;;;;;;;13.00;5.13;;;5.60;82.80;;;;;;5069349;28;20232;-59
2021/04/10 04:16:02;;;;;;;9.53;4.30;;;5.70;83.70;;;;;;5066834;28;20592;-58
2021/04/10 04:18:28;;;;;;;8.93;4.63;;;5.70;83.20;;;;;;5069676;28;20229;-58
2021/04/10 04:20:53;;;;;;;15.27;4.97;;;5.70;83.30;;;;;;5068695;28;20186;-59
2021/04/10 04:23:19;;;;;;;7.50;4.10;;;5.70;83.60;;;;;;5068055;28;20217;-58
2021/04/10 04:25:45;;;;;;;15.67;4.37;;;5.70;84.10;;;;;;5065365;28;20608;-59
2021/04/10 04:28:10;;;;;;;7.00;3.97;;;5.70;83.20;;;;;;5067782;28;20738;-59
2021/04/10 04:30:36;;;;;;;6.37;4.03;;;5.70;83.00;;;;;;5080761;28;20220;-59
2021/04/10 04:33:02;;;;;;;4.03;3.20;;;5.80;82.50;;;;;;5069095;28;20205;-59
2021/04/10 04:35:27;;;;;;;6.00;3.43;;;5.80;81.90;;;;;;5048657;28;20302;-59
2021/04/10 04:37:53;;;;;;;4.10;2.90;;;5.80;81.30;;;;;;5065767;28;20864;-58
2021/04/10 04:40:19;;;;;;;3.27;2.90;;;5.90;81.10;;;;;;5069116;28;20844;-58
2021/04/10 04:42:44;;;;;;;5.63;3.67;;;5.90;80.70;;;;;;5062649;28;20187;-59
2021/04/10 04:45:10;;;;;;;3.47;2.87;;;5.90;80.70;;;;;;5066168;28;20206;-59
2021/04/10 04:47:36;;;;;;;11.87;3.10;;;5.90;80.40;;;;;;5054111;28;20186;-59
2021/04/10 04:50:02;;;;;;;6.20;3.60;;;5.90;80.50;;;;;;5065008;28;20206;-58
2021/04/10 04:52:30;;;;;;;5.17;3.53;;;5.90;80.80;;;;;;5066885;28;20244;-58
2021/04/10 04:54:55;;;;;;;7.43;3.50;;;5.90;80.40;;;;;;5064485;28;20590;-57
2021/04/10 04:57:21;;;;;;;6.57;2.77;;;5.90;80.60;;;;;;5064472;28;20536;-59
2021/04/10 04:59:47;;;;;;;5.53;4.03;;;6.00;80.30;;;;;;5064855;28;20672;-57
2021/04/10 05:02:14;;;;;;;15.23;4.00;;;6.00;79.80;;;;;;5064803;28;20174;-58
2021/04/10 05:04:39;;;;;;;7.90;3.60;;;6.10;79.80;;;;;;5061085;28;20628;-59
2021/04/10 05:07:05;;;;;;;12.77;3.43;;;6.10;79.30;;;;;;5058473;28;20428;-58
2021/04/10 05:09:31;;;;;;;6.50;3.40;;;6.20;78.70;;;;;;5064833;28;20667;-60
2021/04/10 05:11:56;;;;;;;7.17;3.17;;;6.20;78.20;;;;;;5058139;28;20261;-60
2021/04/10 05:14:22;;;;;;;6.90;3.30;;;6.30;78.30;;;;;;5068708;28;20221;-61
2021/04/10 05:16:48;;;;;;;4.13;3.17;;;6.30;77.80;;;;;;5060083;28;20217;-58
2021/04/10 05:19:13;;;;;;;8.13;4.17;;;6.30;77.50;;;;;;5060649;28;20182;-59
2021/04/10 05:21:39;;;;;;;5.93;3.50;;;6.40;77.10;;;;;;5066258;28;20190;-59
2021/04/10 05:24:05;;;;;;;7.00;3.50;;;6.40;77.00;;;;;;5060755;28;20210;-59
2021/04/10 05:26:31;;;;;;;5.83;3.00;;;6.50;77.40;;;;;;5063716;28;20174;-60
2021/04/10 05:28:56;;;;;;;7.53;3.20;;;6.50;77.80;;;;;;5063179;28;20439;-60
2021/04/10 05:31:23;;;;;;;6.10;3.20;;;6.50;78.70;;;;;;5060751;28;20179;-60
2021/04/10 05:33:48;;;;;;;6.17;3.70;;;6.50;78.90;;;;;;5064109;28;20206;-59
2021/04/10 05:36:14;;;;;;;7.67;3.47;;;6.60;78.50;;;;;;5062315;28;20439;-59
2021/04/10 05:38:40;;;;;;;5.00;3.33;;;6.60;78.30;;;;;;5060148;28;20751;-60
2021/04/10 05:41:07;;;;;;;4.10;3.20;;;6.60;78.40;;;;;;5065733;28;20178;-60
2021/04/10 05:43:33;;;;;;;7.80;3.10;;;6.60;78.20;;;;;;5054583;28;20323;-59
2021/04/10 05:45:59;;;;;;;5.03;3.27;;;6.70;77.80;;;;;;5061911;28;20582;-60
2021/04/10 05:48:24;;;;;;;6.30;3.30;;;6.70;77.30;;;;;;5060616;28;20308;-61
2021/04/10 05:50:50;;;;;;;10.93;3.20;;;6.80;76.80;;;;;;5064665;28;20452;-61
2021/04/10 05:53:16;;;;;;;4.20;2.93;;;6.80;76.60;;;;;;5057897;28;21518;-60
2021/04/10 05:55:41;;;;;;;5.13;2.80;;;6.80;76.70;;;;;;5064688;28;20189;-60
2021/04/10 05:58:07;;;;;;;5.53;3.30;;;6.90;76.70;;;;;;5063731;28;20221;-58
2021/04/10 06:00:33;;;;;;;6.03;3.40;;;6.90;76.50;;;;;;5065660;28;20186;-59
2021/04/10 06:02:58;;;;;;;6.90;3.90;;;7.00;77.00;;;;;;5062532;28;20810;-60
2021/04/10 06:05:24;;;;;;;6.63;3.50;;;7.00;77.20;;;;;;5063243;28;20237;-60
2021/04/10 06:07:51;;;;;;;4.83;3.17;;;7.10;76.90;;;;;;5065777;28;20553;-59
2021/04/10 06:10:20;;;;;;;5.83;3.20;;;7.10;76.70;;;;;;5061544;28;20178;-58
2021/04/10 06:12:47;;;;;;;6.13;3.10;;;7.10;76.90;;;;;;5067313;28;20426;-59
2021/04/10 06:15:17;;;;;;;6.20;3.27;;;7.20;77.10;;;;;;5069524;28;21134;-59
2021/04/10 06:17:43;;;;;;;6.60;3.20;;;7.20;77.80;;;;;;5066774;28;21005;-60
2021/04/10 06:20:10;;;;;;;5.10;3.30;;;7.30;77.60;;;;;;5063182;28;20456;-60
2021/04/10 06:22:36;;;;;;;4.97;3.00;;;7.30;77.80;;;;;;5060643;28;20436;-59
2021/04/10 06:25:02;;;;;;;3.70;2.70;;;7.30;77.80;;;;;;5065576;28;22351;-59
2021/04/10 06:27:28;;;;;;;6.70;3.03;;;7.40;77.90;;;;;;5071943;28;20444;-59
2021/04/10 06:29:54;;;;;;;9.20;3.13;;;7.40;78.10;;;;;;5065643;28;20428;-59
2021/04/10 06:32:19;;;;;;;7.63;3.47;;;7.50;78.70;;;;;;5061326;28;20232;-59
2021/04/10 06:34:45;;;;;;;6.13;3.37;;;7.50;78.10;;;;;;5064521;28;20569;-59
2021/04/10 06:37:11;;;;;;;6.17;3.30;;;7.60;78.10;;;;;;5061529;28;20240;-60
2021/04/10 06:39:37;;;;;;;6.40;3.43;;;7.60;78.40;;;;;;5060944;28;20186;-60
2021/04/10 06:42:05;;;;;;;6.10;3.20;;;7.60;78.10;;;;;;5066730;28;20261;-60
2021/04/10 06:44:32;;;;;;;5.27;3.30;;;7.70;77.80;;;;;;5066760;28;20267;-59
2021/04/10 06:47:00;;;;;;;6.93;3.30;;;7.70;77.90;;;;;;5067386;28;20512;-61
2021/04/10 06:49:28;;;;;;;8.23;3.60;;;7.80;77.30;;;;;;5064811;28;20428;-59
2021/04/10 06:51:56;;;;;;;7.70;3.00;;;7.80;78.10;;;;;;5062975;28;20433;-59
2021/04/10 06:54:27;;;;;;;5.23;3.30;;;7.90;77.70;;;;;;5064622;28;20850;-59
2021/04/10 06:57:03;;;;;;;7.87;3.40;;;7.90;76.70;;;;;;5061469;28;20569;-59
2021/04/10 06:59:43;;;;;;;5.40;3.83;;;7.90;77.10;;;;;;5065841;28;20463;-60
2021/04/10 07:02:11;;;;;;;10.73;3.40;;;8.00;76.50;;;;;;5055136;28;22025;-60
2021/04/10 07:04:38;;;;;;;4.00;3.20;;;8.10;75.70;;;;;;5056552;28;20474;-58
2021/04/10 07:07:04;;;;;;;3.80;2.97;;;8.10;74.80;;;;;;5068411;28;20436;-58
2021/04/10 07:09:35;;;;;;;3.20;2.67;;;8.10;73.60;;;;;;5067669;28;20437;-60
2021/04/10 07:12:04;;;;;;;6.67;2.63;;;8.20;73.10;;;;;;5064443;28;20182;-59
2021/04/10 07:14:31;;;;;;;4.50;3.13;;;8.20;72.90;;;;;;5055934;28;20464;-58
2021/04/10 07:17:00;;;;;;;6.10;2.60;;;8.30;72.80;;;;;;5065796;28;20437;-58
2021/04/10 07:19:27;;;;;;;13.43;2.87;;;8.30;72.90;;;;;;5062389;28;20432;-59
2021/04/10 07:22:04;;;;;;;5.67;2.90;;;8.30;71.70;;;;;;5066780;28;20430;-60
2021/04/10 07:24:44;;;;;;;4.23;2.73;;;8.40;72.30;;;;;;5063596;28;20471;-59
2021/04/10 07:27:14;;;;;;;7.47;2.60;;;8.40;72.10;;;;;;5063951;28;20566;-59
2021/04/10 07:29:44;;;;;;;4.70;2.67;;;8.50;71.90;;;;;;5064327;28;20948;-60
2021/04/10 07:32:32;;;;;;;14.13;3.40;;;8.50;70.90;;;;;;5067112;28;20433;-58
2021/04/10 07:35:07;;;;;;;6.37;3.20;;;8.60;70.10;;;;;;5064819;28;20964;-59
2021/04/10 07:37:48;;;;;;;5.10;2.70;;;8.60;68.60;;;;;;5068982;28;20439;-59
2021/04/10 07:40:19;;;;;;;6.30;3.20;;;8.60;69.30;;;;;;5068034;28;20476;-60
2021/04/10 07:42:47;;;;;;;4.10;2.80;;;8.70;68.70;;;;;;5058034;28;20482;-60
2021/04/10 07:45:24;;;;;;;3.57;2.90;;;8.80;67.80;;;;;;5057783;28;20465;-59
2021/04/10 07:48:01;;;;;;;11.53;2.80;;;8.80;67.30;;;;;;5058478;28;20555;-60
2021/04/10 07:50:27;;;;;;;7.50;3.13;;;8.90;67.20;;;;;;5064495;28;20462;-59
2021/04/10 07:52:54;;;;;;;13.40;3.13;;;9.00;66.40;;;;;;5063599;28;20437;-58
2021/04/10 07:55:42;;;;;;;2.93;2.73;;;9.00;64.80;;;;;;5063493;28;20453;-57
2021/04/10 07:58:27;;;;;;;5.57;2.50;;;9.10;64.50;;;;;;5066483;28;21847;-59
2021/04/10 08:01:13;;;;;;;6.43;3.93;;;9.10;63.60;;;;;;5065334;28;21116;-59
2021/04/10 08:03:43;;;;;;;5.63;2.70;;;9.20;63.60;;;;;;5065505;28;20558;-61
2021/04/10 08:06:08;;;;;;;4.47;2.90;;;9.30;63.70;;;;;;5066629;28;20796;-59
2021/04/10 08:08:35;;;;;;;7.83;2.60;;;9.40;63.30;;;;;;5066954;28;20425;-59
2021/04/10 08:11:03;;;;;;;5.77;2.83;;;9.50;63.20;;;;;;5065088;28;20179;-59
2021/04/10 08:13:29;;;;;;;6.20;2.93;;;9.50;62.80;;;;;;5063369;28;20464;-60
2021/04/10 08:16:19;;;;;;;5.30;2.70;;;9.60;62.00;;;;;;5068707;28;20425;-59
2021/04/10 08:18:44;;;;;;;4.63;2.63;;;9.80;61.80;;;;;;5063097;28;20424;-60
2021/04/10 08:21:11;;;;;;;3.83;2.13;;;9.90;61.50;;;;;;5069105;28;20447;-59
2021/04/10 08:23:37;;;;;;;8.50;2.50;;;10.00;60.10;;;;;;5067039;28;20217;-61
2021/04/10 08:26:03;;;;;;;3.10;2.30;;;10.10;59.70;;;;;;5061758;28;20497;-60
2021/04/10 08:28:29;;;;;;;4.00;2.67;;;10.20;58.20;;;;;;5065098;28;20179;-59
2021/04/10 08:30:58;;;;;;;3.57;2.47;;;10.30;57.80;;;;;;5066836;28;20642;-60
2021/04/10 08:33:27;;;;;;;6.60;2.50;;;10.40;57.70;;;;;;5064023;28;20515;-60
2021/04/10 08:35:55;;;;;;;2.70;2.43;;;10.50;57.10;;;;;;5060105;28;20429;-60
2021/04/10 08:38:26;;;;;;;8.47;2.50;;;10.70;56.30;;;;;;5063353;28;20436;-59
2021/04/10 08:40:58;;;;;;;5.73;2.67;;;10.80;55.40;;;;;;5061811;28;20444;-58
2021/04/10 08:43:30;;;;;;;6.27;2.20;;;10.90;55.20;;;;;;5056084;28;20503;-58
2021/04/10 08:45:57;;;;;;;6.80;2.57;;;11.00;53.80;;;;;;5056141;28;20441;-57
2021/04/10 08:48:23;;;;;;;3.67;2.37;;;11.10;52.90;;;;;;5061273;28;20447;-57
2021/04/10 08:50:56;;;;;;;3.27;2.10;;;11.20;53.00;;;;;;5060222;28;20436;-59
2021/04/10 08:53:46;;;;;;;4.47;2.30;;;11.30;51.30;;;;;;5062797;28;20236;-60
2021/04/10 08:56:13;;;;;;;5.77;2.13;;;11.40;51.40;;;;;;5057826;28;20432;-61
2021/04/10 08:58:42;;;;;;;5.77;2.60;;;11.60;50.60;;;;;;5062718;28;20452;-59
2021/04/10 09:01:29;;;;;;;7.93;3.20;;;11.70;51.10;;;;;;5064247;28;21387;-58
2021/04/10 09:03:55;;;;;;;5.77;2.90;;;11.80;48.40;;;;;;5057039;28;20540;-60
2021/04/10 09:06:33;;;;;;;2.10;1.90;;;12.00;49.50;;;;;;5062613;28;20545;-60
2021/04/10 09:09:11;;;;;;;2.70;2.50;;;12.10;49.40;;;;;;5062051;28;20177;-59
2021/04/10 09:11:38;;;;;;;3.03;2.30;;;12.40;48.30;;;;;;5060785;28;21239;-60
2021/04/10 09:14:04;;;;;;;6.93;2.20;;;12.50;46.60;;;;;;5063262;28;20444;-60
2021/04/10 09:16:34;;;;;;;4.60;2.50;;;12.60;46.00;;;;;;5063816;28;20424;-60
2021/04/10 09:19:11;;;;;;;3.53;2.13;;;12.50;45.90;;;;;;5064801;28;20428;-59
2021/04/10 09:21:51;;;;;;;2.93;1.83;;;12.50;45.20;;;;;;5059402;28;20491;-61
2021/04/10 09:24:40;;;;;;;7.20;2.07;;;12.50;45.30;;;;;;5062010;28;20468;-61
2021/04/10 09:27:08;;;;;;;3.43;1.93;;;12.50;45.60;;;;;;5060675;28;20424;-60
2021/04/10 09:29:37;;;;;;;3.67;2.10;;;12.40;44.90;;;;;;5063236;28;20432;-59
2021/04/10 09:32:03;;;;;;;2.57;2.10;;;12.40;45.40;;;;;;5060761;28;21052;-60
2021/04/10 09:34:51;;;;;;;2.27;2.00;;;12.40;45.50;;;;;;5062232;28;20543;-59
2021/04/10 09:37:19;;;;;;;7.10;3.00;;;12.40;45.10;;;;;;5062897;28;20807;-60
2021/04/10 09:39:56;;;;;;;2.60;2.30;;;12.40;45.80;;;;;;5061322;28;20440;-59
2021/04/10 09:45:13;;;;;;;4.57;2.40;;;12.60;45.50;;;;;;5071272;22;20492;-54
2021/04/10 09:48:00;;;;;;;3.10;2.50;;;12.70;45.70;;;;;;5053643;28;20449;-51
2021/04/10 09:50:37;;;;;;;3.87;2.60;;;12.80;45.40;;;;;;5062040;28;20424;-55
2021/04/10 09:53:07;;;;;;;7.03;2.67;;;12.90;45.50;;;;;;5065157;28;20432;-55
2021/04/10 09:55:37;;;;;;;7.37;2.00;;;13.10;45.30;;;;;;5064594;28;20960;-55
2021/04/10 09:58:13;;;;;;;4.83;2.90;;;13.30;44.70;;;;;;5065938;28;20467;-56
2021/04/10 10:00:42;;;;;;;5.33;2.63;;;13.40;44.10;;;;;;5064755;28;20778;-56
2021/04/10 10:03:09;;;;;;;4.00;2.23;;;13.60;43.80;;;;;;5061299;28;20518;-56
2021/04/10 10:05:40;;;;;;;3.57;2.60;;;13.70;44.10;;;;;;5064853;28;20490;-55
2021/04/10 10:08:11;;;;;;;4.30;2.80;;;13.90;43.60;;;;;;5067252;28;20484;-55
2021/04/10 10:10:46;;;;;;;7.33;2.77;;;14.00;43.60;;;;;;5056099;28;20436;-56
2021/04/10 10:13:17;;;;;;;10.10;2.30;;;14.10;43.20;;;;;;5062503;28;20428;-55
2021/04/10 10:15:44;;;;;;;3.83;2.73;;;14.20;43.20;;;;;;5063825;28;20999;-55
2021/04/10 10:18:37;;;;;;;3.10;2.40;;;14.30;42.60;;;;;;5065305;28;20839;-55
2021/04/10 10:21:12;;;;;;;3.20;2.10;;;14.40;42.60;;;;;;5066114;28;20440;-56
2021/04/10 10:24:01;;;;;;;5.53;2.37;;;14.50;41.60;;;;;;5062440;28;20460;-55
2021/04/10 10:26:28;;;;;;;7.23;3.00;;;14.50;42.20;;;;;;5055357;28;20554;-54
2021/04/10 10:29:02;;;;;;;5.50;2.70;;;14.50;42.40;;;;;;5067053;28;20443;-55
2021/04/10 10:31:30;;;;;;;4.33;2.60;;;14.60;42.10;;;;;;5061686;28;20531;-55
2021/04/10 10:34:05;;;;;;;6.33;2.33;;;14.60;41.40;;;;;;5062452;28;20433;-56
2021/04/10 10:36:35;;;;;;;5.00;2.77;;;14.50;41.30;;;;;;5049142;28;20635;-55
2021/04/10 10:39:02;;;;;;;5.30;2.90;;;14.60;41.90;;;;;;5052372;28;20447;-56
2021/04/10 10:41:30;;;;;;;5.97;2.30;;;14.70;41.90;;;;;;5066692;28;20485;-53
2021/04/10 10:46:32;;;;;;;5.37;2.50;;;14.80;42.00;;;;;;5083846;27;20917;-54
2021/04/10 10:48:57;;;;;;;4.33;2.30;;;15.10;40.70;;;;;;5080895;28;20440;-59
2021/04/10 10:51:24;;;;;;;4.83;2.43;;;15.10;41.00;;;;;;5076910;28;20684;-57
2021/04/10 10:53:56;;;;;;;2.40;2.20;;;15.20;41.50;;;;;;5095398;28;20174;-58
2021/04/10 10:56:25;;;;;;;5.67;2.53;;;15.40;40.40;;;;;;5081122;28;20886;-58
2021/04/10 10:58:53;;;;;;;8.53;2.57;;;15.40;39.50;;;;;;5071540;28;20488;-59
2021/04/10 11:01:23;;;;;;;3.57;2.37;;;15.40;39.70;;;;;;5069771;28;20677;-58
2021/04/10 11:03:52;;;;;;;7.03;3.23;;;15.60;40.50;;;;;;5072850;28;21676;-58
2021/04/10 11:06:26;;;;;;;6.17;3.07;;;15.80;40.50;;;;;;5078889;28;20713;-57
2021/04/10 11:08:52;;;;;;;3.67;2.60;;;16.00;39.20;;;;;;5082066;28;20392;-58
2021/04/10 11:11:21;;;;;;;2.50;2.23;;;16.20;39.50;;;;;;5070640;28;20451;-58
2021/04/10 11:13:48;;;;;;;2.60;1.93;;;16.30;39.50;;;;;;5076277;28;20432;-57
2021/04/10 11:16:16;;;;;;;5.90;2.73;;;16.50;39.10;;;;;;5080595;28;20655;-57
2021/04/10 11:18:42;;;;;;;1.80;1.70;;;16.50;37.80;;;;;;5076183;28;20492;-58
2021/04/10 11:21:25;;;;;;;4.60;2.00;;;16.50;37.30;;;;;;5076946;28;20855;-58
2021/04/10 11:23:59;;;;;;;4.57;2.57;;;16.50;37.00;;;;;;5073279;28;20174;-57
2021/04/10 11:26:42;;;;;;;9.30;2.63;;;16.50;37.00;;;;;;5066666;28;20456;-58
2021/04/10 11:29:20;;;;;;;4.03;2.17;;;16.50;37.10;;;;;;5066453;28;20437;-58
2021/04/10 11:32:04;;;;;;;4.17;2.30;;;16.60;37.20;;;;;;5065868;28;20438;-58
2021/04/10 11:34:57;;;;;;;2.80;2.20;;;16.70;36.90;;;;;;5080791;28;20644;-57
2021/04/10 11:37:39;;;;;;;5.80;2.30;;;16.70;37.10;;;;;;5068066;28;20887;-59
2021/04/10 11:40:29;;;;;;;4.70;2.40;;;16.80;37.10;;;;;;5075386;28;20434;-57
2021/04/10 11:43:04;;;;;;;4.43;2.00;;;16.80;36.90;;;;;;5080764;28;20423;-59
2021/04/10 11:45:44;;;;;;;3.67;2.20;;;17.00;36.50;;;;;;5065969;28;20581;-58
2021/04/10 11:48:18;;;;;;;2.67;2.43;;;17.10;36.00;;;;;;5069239;28;20511;-58
2021/04/10 11:50:53;;;;;;;3.20;2.23;;;17.30;35.40;;;;;;5081105;28;20458;-58
2021/04/10 11:53:33;;;;;;;3.30;2.00;;;17.30;34.50;;;;;;5072048;28;20432;-57
2021/04/10 11:55:59;;;;;;;2.43;2.20;;;17.40;35.20;;;;;;5060734;28;20508;-58
2021/04/10 11:58:36;;;;;;;3.70;2.10;;;17.50;34.20;;;;;;5066827;28;20943;-57
2021/04/10 12:01:20;;;;;;;2.80;1.90;;;17.70;34.40;;;;;;5056258;28;20755;-57
2021/04/10 12:03:59;;;;;;;2.10;1.90;;;17.80;33.20;;;;;;5061704;28;20428;-56
2021/04/10 12:06:29;;;;;;;5.60;2.00;;;17.90;33.30;;;;;;5083778;28;20463;-57
2021/04/10 12:08:58;;;;;;;6.73;1.63;;;17.90;32.90;;;;;;5067236;28;20437;-56
2021/04/10 12:11:25;;;;;;;2.43;1.43;;;18.00;32.30;;;;;;5072676;28;20885;-56
2021/04/10 12:13:51;;;;;;;2.00;1.80;;;17.90;32.20;;;;;;5065550;28;20510;-56
2021/04/10 12:16:16;;;;;;;3.03;2.37;;;18.00;33.10;;;;;;5062296;28;20678;-56
2021/04/10 12:18:42;;;;;;;3.67;2.30;;;18.20;33.40;;;;;;5063162;28;20193;-56
2021/04/10 12:21:08;;;;;;;3.37;2.13;;;18.40;32.40;;;;;;5064075;28;20523;-56
2021/04/10 12:23:34;;;;;;;2.43;1.60;;;18.50;31.60;;;;;;5061340;28;20233;-56
2021/04/10 12:26:02;;;;;;;3.13;1.60;;;18.50;31.60;;;;;;5064508;28;20915;-56
2021/04/10 12:28:29;;;;;;;3.00;2.03;;;18.60;32.30;;;;;;5059905;28;20673;-56
2021/04/10 12:30:55;;;;;;;3.43;2.23;;;18.60;31.50;;;;;;5063542;28;20838;-56
2021/04/10 12:33:22;;;;;;;3.63;2.23;;;18.40;31.80;;;;;;5057839;28;20425;-55
2021/04/10 12:35:47;;;;;;;5.30;2.20;;;18.30;32.30;;;;;;5064135;28;20461;-57
2021/04/10 12:38:13;;;;;;;4.07;2.17;;;18.30;32.20;;;;;;5057135;28;20437;-55
2021/04/10 12:40:39;;;;;;;4.00;2.17;;;18.50;31.80;;;;;;5055137;28;20711;-58
2021/04/10 12:43:05;;;;;;;2.93;1.77;;;18.60;30.70;;;;;;5052981;28;20237;-57
2021/04/10 12:45:30;;;;;;;6.27;2.30;;;18.70;30.80;;;;;;5054457;28;20803;-58
2021/04/10 12:47:56;;;;;;;5.50;2.40;;;18.80;31.00;;;;;;5061005;28;20182;-56
2021/04/10 12:50:25;;;;;;;4.00;1.90;;;19.00;32.00;;;;;;5058010;28;20217;-56
2021/04/10 12:52:51;;;;;;;7.77;1.87;;;19.30;32.60;;;;;;5058652;28;20184;-56
2021/04/10 12:55:17;;;;;;;2.80;1.90;;;19.40;31.10;;;;;;5052877;28;20449;-54
2021/04/10 12:57:43;;;;;;;4.23;2.37;;;19.30;31.10;;;;;;5053878;28;20179;-53
2021/04/10 13:00:12;;;;;;;4.50;2.13;;;19.20;31.50;;;;;;5051154;28;20433;-54
2021/04/10 13:02:38;;;;;;;3.47;2.40;;;19.10;31.20;;;;;;5056944;28;20502;-53
2021/04/10 13:05:04;;;;;;;6.77;2.43;;;18.70;31.20;;;;;;5058705;28;20903;-53
2021/04/10 13:07:30;;;;;;;2.33;1.83;;;18.60;32.00;;;;;;5059630;28;20448;-53